createdAt,value
2019-03-03T00:02:08.352Z,100611.22
2019-03-03T00:04:40.013Z,100613.02
2019-03-03T00:07:11.871Z,100613.95
2019-03-03T00:09:43.542Z,100607.39
2019-03-03T00:12:15.234Z,100601.08
2019-03-03T00:14:46.905Z,100594.11
2019-03-03T00:17:18.786Z,100589.02
2019-03-03T00:19:50.449Z,100579.34
2019-03-03T00:22:22.077Z,100574.83
2019-03-03T00:24:53.835Z,100573.23
2019-03-03T00:27:25.592Z,100576.66
2019-03-03T00:29:57.435Z,100568.20
2019-03-03T00:32:29.134Z,100568.55
2019-03-03T00:35:00.732Z,100569.88
2019-03-03T00:37:42.620Z,100570.73
2019-03-03T00:40:31.786Z,100571.56
2019-03-03T00:43:21.287Z,100570.01
2019-03-03T00:46:09.371Z,100565.22
2019-03-03T00:48:56.203Z,100565.22
2019-03-03T00:51:42.041Z,100566.17
2019-03-03T00:54:31.347Z,100563.83
2019-03-03T00:57:20.468Z,100562.66
2019-03-03T00:59:57.952Z,100561.88
2019-03-03T01:02:47.100Z,100565.22
2019-03-03T01:05:32.400Z,100567.17
2019-03-03T01:08:22.919Z,100565.17
2019-03-03T01:11:22.835Z,100559.52
2019-03-03T01:14:02.674Z,100556.83
2019-03-03T01:16:51.846Z,100550.49
2019-03-03T01:19:34.724Z,100551.89
2019-03-03T01:22:20.508Z,100554.83
2019-03-03T01:25:00.099Z,100545.36
2019-03-03T01:27:32.492Z,100556.66
2019-03-03T01:30:04.338Z,100554.83
2019-03-03T01:32:36.126Z,100553.43
2019-03-03T01:35:08.491Z,100549.69
2019-03-03T01:37:40.149Z,100539.89
2019-03-03T01:40:11.770Z,100530.41
2019-03-03T01:42:43.378Z,100526.31
2019-03-03T01:45:15.941Z,100522.25
2019-03-03T01:47:47.611Z,100516.48
2019-03-03T01:50:19.207Z,100517.26
2019-03-03T01:52:50.887Z,100516.42
2019-03-03T01:55:22.502Z,100513.59
2019-03-03T01:57:54.119Z,100510.30
2019-03-03T02:00:26.999Z,100516.73
2019-03-03T02:02:58.808Z,100510.00
2019-03-03T02:05:30.663Z,100512.66
2019-03-03T02:08:02.600Z,100506.09
2019-03-03T02:10:34.467Z,100508.77
2019-03-03T02:13:06.088Z,100501.87
2019-03-03T02:15:37.767Z,100497.10
2019-03-03T02:18:09.450Z,100491.25
2019-03-03T02:20:41.045Z,100492.19
2019-03-03T02:23:13.809Z,100484.25
2019-03-03T02:25:45.487Z,100480.18
2019-03-03T02:28:17.177Z,100475.05
2019-03-03T02:30:48.771Z,100473.77
2019-03-03T02:33:20.433Z,100475.50
2019-03-03T02:35:52.119Z,100470.27
2019-03-03T02:38:23.738Z,100463.83
2019-03-03T02:40:55.342Z,100470.40
2019-03-03T02:43:27.037Z,100463.29
2019-03-03T02:45:58.709Z,100452.80
2019-03-03T02:48:30.653Z,100455.30
2019-03-03T02:51:02.565Z,100456.02
2019-03-03T02:53:34.487Z,100453.79
2019-03-03T02:56:06.088Z,100442.45
2019-03-03T02:58:37.840Z,100450.58
2019-03-03T03:01:22.849Z,100442.36
2019-03-03T03:03:54.538Z,100438.98
2019-03-03T03:06:38.324Z,100435.45
2019-03-03T03:09:18.573Z,100436.23
2019-03-03T03:12:26.986Z,100434.98
2019-03-03T03:15:28.566Z,100424.36
2019-03-03T03:18:25.227Z,100419.48
2019-03-03T03:21:01.551Z,100417.80
2019-03-03T03:24:03.913Z,100415.45
2019-03-03T03:27:00.352Z,100417.59
2019-03-03T03:29:57.741Z,100421.14
2019-03-03T03:32:43.651Z,100408.15
2019-03-03T03:35:20.798Z,100407.83
2019-03-03T03:38:26.472Z,100415.06
2019-03-03T03:41:25.795Z,100414.88
2019-03-03T03:44:31.534Z,100406.78
2019-03-03T03:47:37.328Z,100393.72
2019-03-03T03:50:26.584Z,100394.18
2019-03-03T03:53:13.767Z,100377.94
2019-03-03T03:56:04.368Z,100371.67
2019-03-03T03:59:12.983Z,100343.73
2019-03-03T04:02:04.797Z,100357.33
2019-03-03T04:04:54.397Z,100361.27
2019-03-03T04:07:51.191Z,100356.72
2019-03-03T04:10:41.694Z,100350.95
2019-03-03T04:13:32.115Z,100345.84
2019-03-03T04:16:35.515Z,100346.23
2019-03-03T04:19:16.660Z,100337.12
2019-03-03T04:22:05.644Z,100337.90
2019-03-03T04:24:55.020Z,100328.02
2019-03-03T04:27:46.418Z,100329.34
2019-03-03T04:30:36.948Z,100325.18
2019-03-03T04:33:30.441Z,100315.08
2019-03-03T04:36:11.031Z,100313.40
2019-03-03T04:38:59.924Z,100313.52
2019-03-03T04:41:59.736Z,100310.52
2019-03-03T04:45:02.594Z,100321.22
2019-03-03T04:47:44.422Z,100323.27
2019-03-03T04:50:24.242Z,100316.05
2019-03-03T04:53:29.697Z,100324.00
2019-03-03T04:56:10.238Z,100321.23
2019-03-03T04:58:52.097Z,100319.27
2019-03-03T05:01:32.416Z,100317.77
2019-03-03T05:04:41.877Z,100316.11
2019-03-03T05:07:35.264Z,100312.61
2019-03-03T05:10:28.665Z,100303.62
2019-03-03T05:13:24.923Z,100307.83
2019-03-03T05:16:13.819Z,100305.70
2019-03-03T05:19:13.164Z,100306.50
2019-03-03T05:21:44.764Z,100295.23
2019-03-03T05:24:16.362Z,100286.67
2019-03-03T05:26:48.031Z,100288.31
2019-03-03T05:29:19.658Z,100285.65
2019-03-03T05:31:51.272Z,100282.80
2019-03-03T05:34:22.950Z,100285.39
2019-03-03T05:36:54.558Z,100283.38
2019-03-03T05:39:26.180Z,100278.80
2019-03-03T05:41:57.774Z,100277.20
2019-03-03T05:44:29.399Z,100276.28
2019-03-03T05:47:01.333Z,100274.37
2019-03-03T05:49:34.464Z,100272.75
2019-03-03T05:52:06.366Z,100270.54
2019-03-03T05:54:38.535Z,100272.56
2019-03-03T05:57:10.133Z,100266.28
2019-03-03T05:59:41.747Z,100268.00
2019-03-03T06:02:13.354Z,100275.23
2019-03-03T06:04:44.979Z,100272.76
2019-03-03T06:07:16.577Z,100264.27
2019-03-03T06:09:48.189Z,100261.80
2019-03-03T06:12:19.909Z,100264.66
2019-03-03T06:14:51.529Z,100271.03
2019-03-03T06:17:23.124Z,100261.98
2019-03-03T06:19:54.748Z,100263.59
2019-03-03T06:22:26.336Z,100265.81
2019-03-03T06:24:58.035Z,100261.88
2019-03-03T06:27:30.317Z,100265.81
2019-03-03T06:30:02.002Z,100258.63
2019-03-03T06:32:33.715Z,100251.00
2019-03-03T06:35:06.036Z,100250.55
2019-03-03T06:37:37.648Z,100245.02
2019-03-03T06:40:09.858Z,100247.98
2019-03-03T06:42:41.451Z,100239.86
2019-03-03T06:45:13.229Z,100236.54
2019-03-03T06:47:44.810Z,100230.70
2019-03-03T06:50:16.425Z,100225.37
2019-03-03T06:52:48.154Z,100215.06
2019-03-03T06:55:19.840Z,100209.99
2019-03-03T06:57:52.045Z,100216.09
2019-03-03T07:00:23.662Z,100220.28
2019-03-03T07:02:55.326Z,100220.28
2019-03-03T07:05:26.942Z,100229.14
2019-03-03T07:07:58.633Z,100233.14
2019-03-03T07:10:30.297Z,100226.20
2019-03-03T07:13:01.916Z,100225.84
2019-03-03T07:15:33.737Z,100219.92
2019-03-03T07:18:06.169Z,100220.45
2019-03-03T07:20:37.790Z,100207.28
2019-03-03T07:23:09.469Z,100185.91
2019-03-03T07:25:41.169Z,100184.16
2019-03-03T07:28:12.770Z,100180.59
2019-03-03T07:30:44.380Z,100180.27
2019-03-03T07:33:28.617Z,100181.00
2019-03-03T07:36:00.428Z,100199.69
2019-03-03T07:38:32.099Z,100204.08
2019-03-03T07:41:03.763Z,100192.30
2019-03-03T07:43:35.604Z,100195.83
2019-03-03T07:46:07.546Z,100202.07
2019-03-03T07:48:39.195Z,100193.84
2019-03-03T07:51:10.880Z,100200.73
2019-03-03T07:53:42.500Z,100199.48
2019-03-03T07:56:14.143Z,100198.95
2019-03-03T07:58:45.804Z,100189.05
2019-03-03T08:01:17.428Z,100196.28
2019-03-03T08:03:49.026Z,100198.05
2019-03-03T08:06:20.656Z,100194.48
2019-03-03T08:08:52.439Z,100194.86
2019-03-03T08:11:24.056Z,100185.00
2019-03-03T08:13:56.583Z,100185.95
2019-03-03T08:16:28.356Z,100179.96
2019-03-03T08:19:00.019Z,100166.23
2019-03-03T08:21:31.974Z,100166.34
2019-03-03T08:24:03.754Z,100160.05
2019-03-03T08:26:35.613Z,100167.43
2019-03-03T08:29:07.523Z,100173.19
2019-03-03T08:31:39.231Z,100166.06
2019-03-03T08:34:10.903Z,100164.80
2019-03-03T08:36:42.612Z,100160.91
2019-03-03T08:39:14.286Z,100161.55
2019-03-03T08:41:49.598Z,100160.88
2019-03-03T08:44:25.928Z,100158.59
2019-03-03T08:47:19.447Z,100154.48
2019-03-03T08:50:11.921Z,100143.88
2019-03-03T08:53:17.698Z,100147.36
2019-03-03T08:56:13.922Z,100144.53
2019-03-03T08:59:00.594Z,100151.34
2019-03-03T09:01:44.481Z,100141.16
2019-03-03T09:04:43.923Z,100131.64
2019-03-03T09:07:32.951Z,100131.53
2019-03-03T09:10:26.791Z,100125.83
2019-03-03T09:13:17.689Z,100122.03
2019-03-03T09:16:14.488Z,100121.80
2019-03-03T09:19:11.084Z,100131.66
2019-03-03T09:22:07.424Z,100122.64
2019-03-03T09:24:58.030Z,100126.80
2019-03-03T09:27:42.705Z,100128.98
2019-03-03T09:30:33.239Z,100124.95
2019-03-03T09:33:36.865Z,100127.77
2019-03-03T09:36:30.262Z,100113.62
2019-03-03T09:39:35.643Z,100117.16
2019-03-03T09:42:13.950Z,100125.23
2019-03-03T09:45:16.299Z,100103.97
2019-03-03T09:48:05.379Z,100102.27
2019-03-03T09:50:54.312Z,100099.92
2019-03-03T09:53:43.186Z,100102.10
2019-03-03T09:56:36.712Z,100099.62
2019-03-03T09:59:25.826Z,100094.30
2019-03-03T10:02:23.406Z,100095.22
2019-03-03T10:05:12.489Z,100094.92
2019-03-03T10:08:01.633Z,100079.13
2019-03-03T10:10:40.707Z,100080.73
2019-03-03T10:13:29.868Z,100087.78
2019-03-03T10:16:09.057Z,100080.58
2019-03-03T10:19:06.947Z,100082.81
2019-03-03T10:21:38.375Z,100075.16
2019-03-03T10:24:19.361Z,100074.57
2019-03-03T10:27:21.898Z,100071.27
2019-03-03T10:30:10.609Z,100074.06
2019-03-03T10:33:00.990Z,100079.70
2019-03-03T10:35:49.974Z,100088.53
2019-03-03T10:38:37.490Z,100087.33
2019-03-03T10:41:27.405Z,100078.61
2019-03-03T10:44:05.465Z,100082.02
2019-03-03T10:47:14.286Z,100084.13
2019-03-03T10:50:07.877Z,100081.70
2019-03-03T10:52:48.199Z,100075.23
2019-03-03T10:55:45.546Z,100073.63
2019-03-03T10:58:28.036Z,100068.94
2019-03-03T11:01:04.384Z,100057.82
2019-03-03T11:04:10.070Z,100051.42
2019-03-03T11:07:06.486Z,100051.52
2019-03-03T11:10:03.108Z,100034.90
2019-03-03T11:12:51.055Z,100033.72
2019-03-03T11:15:41.160Z,100045.98
2019-03-03T11:18:34.788Z,100043.48
2019-03-03T11:21:30.823Z,100051.30
2019-03-03T11:24:27.191Z,100033.48
2019-03-03T11:27:16.353Z,100032.05
2019-03-03T11:30:09.946Z,100023.23
2019-03-03T11:33:05.422Z,100010.03
2019-03-03T11:36:11.660Z,100005.78
2019-03-03T11:39:02.230Z,100001.05
2019-03-03T11:41:47.552Z,100000.78
2019-03-03T11:44:38.137Z,99998.88
2019-03-03T11:47:24.873Z,99999.95
2019-03-03T11:50:17.285Z,100001.70
2019-03-03T11:53:02.180Z,100013.37
2019-03-03T11:55:50.024Z,100011.55
2019-03-03T11:58:39.162Z,100019.70
2019-03-03T12:01:23.172Z,100002.83
2019-03-03T12:04:12.341Z,99999.14
2019-03-03T12:07:02.923Z,100023.44
2019-03-03T12:09:52.078Z,99997.73
2019-03-03T12:12:54.464Z,99996.55
2019-03-03T12:15:45.576Z,99999.72
2019-03-03T12:18:42.959Z,99975.01
2019-03-03T12:21:30.206Z,99978.41
2019-03-03T12:24:20.828Z,99979.41
2019-03-03T12:27:14.418Z,99972.11
2019-03-03T12:30:10.801Z,99972.55
2019-03-03T12:33:01.775Z,99964.86
2019-03-03T12:35:45.430Z,99968.19
2019-03-03T12:38:28.871Z,99964.81
2019-03-03T12:41:31.444Z,99965.36
2019-03-03T12:44:20.667Z,99963.80
2019-03-03T12:47:00.422Z,99960.48
2019-03-03T12:49:58.552Z,99955.57
2019-03-03T12:52:39.284Z,99962.16
2019-03-03T12:55:29.301Z,99961.69
2019-03-03T12:58:34.801Z,99958.91
2019-03-03T13:01:28.228Z,99965.29
2019-03-03T13:04:33.909Z,99964.30
2019-03-03T13:07:29.692Z,99956.92
2019-03-03T13:10:18.823Z,99976.79
2019-03-03T13:13:09.425Z,99970.25
2019-03-03T13:15:59.468Z,99960.06
2019-03-03T13:18:59.870Z,99948.22
2019-03-03T13:22:00.972Z,99949.61
2019-03-03T13:24:54.650Z,99948.62
2019-03-03T13:27:54.396Z,99967.91
2019-03-03T13:30:46.056Z,99957.53
2019-03-03T13:33:40.978Z,99966.68
2019-03-03T13:36:33.685Z,99956.68
2019-03-03T13:39:24.720Z,99970.05
2019-03-03T13:42:27.751Z,99963.66
2019-03-03T13:44:59.777Z,99965.00
2019-03-03T13:47:32.023Z,99969.00
2019-03-03T13:50:04.037Z,99961.11
2019-03-03T13:52:35.778Z,99972.47
2019-03-03T13:55:08.590Z,99969.03
2019-03-03T13:57:40.337Z,99960.05
2019-03-03T14:00:15.363Z,99968.38
2019-03-03T14:02:48.178Z,99962.78
2019-03-03T14:05:21.281Z,99967.58
2019-03-03T14:07:54.320Z,99953.78
2019-03-03T14:10:28.139Z,99951.45
2019-03-03T14:13:02.035Z,99947.05
2019-03-03T14:15:35.993Z,99949.74
2019-03-03T14:18:09.098Z,99961.59
2019-03-03T14:20:42.046Z,99962.04
2019-03-03T14:23:14.586Z,99951.66
2019-03-03T14:25:47.002Z,99950.57
2019-03-03T14:28:19.131Z,99955.41
2019-03-03T14:30:51.140Z,99940.52
2019-03-03T14:33:22.727Z,99943.83
2019-03-03T14:35:55.559Z,99939.91
2019-03-03T14:38:29.459Z,99941.65
2019-03-03T14:41:01.924Z,99941.87
2019-03-03T14:43:33.766Z,99952.29
2019-03-03T14:46:05.883Z,99937.04
2019-03-03T14:48:37.832Z,99939.11
2019-03-03T14:51:09.461Z,99936.42
2019-03-03T14:53:41.291Z,99940.92
2019-03-03T14:56:13.258Z,99935.08
2019-03-03T14:58:44.977Z,99928.36
2019-03-03T15:01:16.636Z,99929.78
2019-03-03T15:03:48.473Z,99925.42
2019-03-03T15:06:24.389Z,99925.39
2019-03-03T15:08:53.820Z,99927.49
2019-03-03T15:11:25.674Z,99923.61
2019-03-03T15:13:57.286Z,99914.83
2019-03-03T15:16:30.092Z,99919.98
2019-03-03T15:19:02.108Z,99924.01
2019-03-03T15:21:35.498Z,99919.14
2019-03-03T15:24:08.294Z,99921.33
2019-03-03T15:26:40.353Z,99916.45
2019-03-03T15:29:12.047Z,99919.39
2019-03-03T15:31:43.798Z,99914.97
2019-03-03T15:34:15.561Z,99911.20
2019-03-03T15:36:47.240Z,99914.14
2019-03-03T15:39:19.034Z,99910.61
2019-03-03T15:41:50.866Z,99912.20
2019-03-03T15:44:22.646Z,99906.95
2019-03-03T15:46:54.367Z,99917.47
2019-03-03T15:49:28.691Z,99909.27
2019-03-03T15:52:00.514Z,99911.59
2019-03-03T15:54:34.241Z,99903.90
2019-03-03T15:57:06.462Z,99904.16
2019-03-03T15:59:38.162Z,99899.25
2019-03-03T16:02:10.241Z,99893.05
2019-03-03T16:04:41.854Z,99896.57
2019-03-03T16:07:13.468Z,99898.28
2019-03-03T16:09:45.704Z,99898.17
2019-03-03T16:12:17.457Z,99895.11
2019-03-03T16:14:49.063Z,99894.75
2019-03-03T16:17:20.700Z,99896.56
2019-03-03T16:19:52.372Z,99890.58
2019-03-03T16:22:23.980Z,99892.80
2019-03-03T16:24:55.574Z,99890.83
2019-03-03T16:27:27.180Z,99886.44
2019-03-03T16:29:58.787Z,99883.14
2019-03-03T16:32:30.398Z,99881.08
2019-03-03T16:35:02.475Z,99879.73
2019-03-03T16:37:34.353Z,99879.59
2019-03-03T16:40:08.123Z,99879.00
2019-03-03T16:42:39.816Z,99881.19
2019-03-03T16:45:12.260Z,99875.81
2019-03-03T16:47:43.938Z,99875.34
2019-03-03T16:50:16.850Z,99878.02
2019-03-03T16:52:49.530Z,99880.70
2019-03-03T16:55:21.160Z,99877.30
2019-03-03T16:57:52.843Z,99880.09
2019-03-03T17:00:24.476Z,99878.23
2019-03-03T17:02:56.174Z,99877.26
2019-03-03T17:05:28.747Z,99874.21
2019-03-03T17:08:00.438Z,99870.19
2019-03-03T17:10:33.602Z,99865.42
2019-03-03T17:13:05.397Z,99871.37
2019-03-03T17:15:37.057Z,99862.80
2019-03-03T17:18:08.657Z,99874.31
2019-03-03T17:20:40.330Z,99868.55
2019-03-03T17:23:11.999Z,99870.66
2019-03-03T17:25:43.580Z,99869.31
2019-03-03T17:28:15.248Z,99878.81
2019-03-03T17:30:46.826Z,99876.97
2019-03-03T17:33:18.538Z,99862.19
2019-03-03T17:35:50.218Z,99875.05
2019-03-03T17:38:21.808Z,99866.84
2019-03-03T17:40:53.467Z,99868.69
2019-03-03T17:43:25.080Z,99865.13
2019-03-03T17:45:57.660Z,99866.12
2019-03-03T17:48:29.355Z,99860.99
2019-03-03T17:51:00.959Z,99862.19
2019-03-03T17:53:32.661Z,99857.70
2019-03-03T17:56:04.451Z,99855.02
2019-03-03T17:58:36.276Z,99859.77
2019-03-03T18:01:08.182Z,99856.35
2019-03-03T18:03:39.870Z,99854.58
2019-03-03T18:06:11.540Z,99845.17
2019-03-03T18:08:43.157Z,99839.08
2019-03-03T18:11:15.037Z,99842.13
2019-03-03T18:13:46.653Z,99831.75
2019-03-03T18:16:18.318Z,99827.94
2019-03-03T18:18:50.010Z,99825.76
2019-03-03T18:21:21.606Z,99818.32
2019-03-03T18:23:53.233Z,99813.67
2019-03-03T18:26:24.834Z,99819.52
2019-03-03T18:28:56.470Z,99814.55
2019-03-03T18:31:28.056Z,99803.56
2019-03-03T18:34:00.733Z,99806.65
2019-03-03T18:36:33.551Z,99804.22
2019-03-03T18:39:07.082Z,99804.37
2019-03-03T18:41:40.270Z,99808.47
2019-03-03T18:44:11.959Z,99797.51
2019-03-03T18:46:43.616Z,99803.92
2019-03-03T18:49:15.310Z,99800.77
2019-03-03T18:51:46.969Z,99794.61
2019-03-03T18:54:18.577Z,99792.72
2019-03-03T18:56:50.326Z,99792.14
2019-03-03T18:59:21.938Z,99794.34
2019-03-03T19:01:54.509Z,99788.47
2019-03-03T19:04:26.144Z,99780.67
2019-03-03T19:06:57.902Z,99780.06
2019-03-03T19:09:29.589Z,99773.08
2019-03-03T19:12:01.523Z,99767.97
2019-03-03T19:14:33.403Z,99770.19
2019-03-03T19:17:05.342Z,99765.39
2019-03-03T19:19:36.958Z,99772.94
2019-03-03T19:22:08.631Z,99771.95
2019-03-03T19:24:40.251Z,99764.14
